Time;durP1;ratioP1;P1;durP2;ratioP2;P2;SDS_P1;SDS_P2;PMS_P1;PMS_P2;Temp;Humidity;BMP_temperature;BMP_pressure;BME280_temperature;BME280_humidity;BME280_pressure;Samples;Min_cycle;Max_cycle;Signal;HPM_P1;HPM_P2
2022/04/20 00:01:00;;;;;;;;;18.50;13.50;;;;;-145.45;100.00;57426.63;5068311;27;46556;-75
2022/04/20 00:03:25;;;;;;;;;24.00;21.75;;;;;-145.45;100.00;57426.63;5060205;27;45288;-75
2022/04/20 00:05:51;;;;;;;;;19.00;18.75;;;;;-145.45;100.00;57426.63;5066222;28;45227;-76
2022/04/20 00:08:16;;;;;;;;;22.75;20.50;;;;;-145.45;100.00;57426.63;5062667;27;45581;-75
2022/04/20 00:10:41;;;;;;;;;22.25;17.50;;;;;-145.45;100.00;57426.63;5067342;28;45240;-76
2022/04/20 00:13:07;;;;;;;;;27.50;24.00;;;;;-145.45;100.00;57426.63;5063998;27;45339;-75
2022/04/20 00:15:32;;;;;;;;;23.00;19.00;;;;;-145.45;100.00;57426.63;5073186;28;45315;-75
2022/04/20 00:17:58;;;;;;;;;25.25;21.00;;;;;-145.45;100.00;57426.63;5061691;28;45589;-75
2022/04/20 00:20:23;;;;;;;;;25.25;22.00;;;;;-145.45;100.00;57426.63;5074888;28;45343;-75
2022/04/20 00:22:48;;;;;;;;;23.25;23.25;;;;;-145.45;100.00;57426.63;5062667;28;45277;-76
2022/04/20 00:25:14;;;;;;;;;28.25;26.75;;;;;-145.45;100.00;57426.63;5073305;28;45753;-75
2022/04/20 00:27:39;;;;;;;;;22.00;19.50;;;;;-145.45;100.00;57426.63;5064395;27;45446;-75
2022/04/20 00:30:08;;;;;;;;;24.25;24.00;;;;;-145.45;100.00;57426.63;5070792;28;47131;-75
2022/04/20 00:32:34;;;;;;;;;26.00;22.50;;;;;-145.45;100.00;57426.63;5063246;27;45434;-75
2022/04/20 00:34:59;;;;;;;;;33.50;28.00;;;;;-145.45;100.00;57426.63;5067185;28;45354;-75
2022/04/20 00:37:24;;;;;;;;;27.00;22.50;;;;;-145.45;100.00;57426.63;5073877;28;45378;-75
2022/04/20 00:39:50;;;;;;;;;29.00;25.75;;;;;-145.45;100.00;57426.63;5066763;28;47309;-75
2022/04/20 00:42:15;;;;;;;;;27.75;23.50;;;;;-145.45;100.00;57426.63;5073193;28;45355;-75
2022/04/20 00:44:42;;;;;;;;;26.50;21.50;;;;;-145.45;100.00;57426.63;5066657;28;45378;-75
2022/04/20 00:47:09;;;;;;;;;28.00;26.50;;;;;-145.45;100.00;57426.63;5072754;28;47389;-75
2022/04/20 00:49:35;;;;;;;;;32.50;27.75;;;;;-145.45;100.00;57426.63;5066639;28;45463;-75
2022/04/20 00:52:02;;;;;;;;;25.50;25.50;;;;;-145.45;100.00;57426.63;5073290;28;45349;-75
2022/04/20 00:54:28;;;;;;;;;31.25;30.75;;;;;-145.45;100.00;57426.63;5064774;28;45383;-75
2022/04/20 00:56:53;;;;;;;;;30.75;29.25;;;;;-145.45;100.00;57426.63;5073643;27;45266;-76
2022/04/20 00:59:22;;;;;;;;;33.00;27.00;;;;;-145.45;100.00;57426.63;5073360;28;48151;-75
2022/04/20 01:01:47;;;;;;;;;42.00;35.50;;;;;-145.45;100.00;57426.63;5068922;28;45241;-76
2022/04/20 01:04:13;;;;;;;;;39.00;33.75;;;;;-145.45;100.00;57426.63;5063347;28;45387;-76
2022/04/20 01:06:38;;;;;;;;;33.00;28.25;;;;;-145.45;100.00;57426.63;5069107;28;46144;-75
2022/04/20 01:09:04;;;;;;;;;34.50;31.00;;;;;-145.45;100.00;57426.63;5063263;28;45220;-75
2022/04/20 01:11:29;;;;;;;;;39.00;34.00;;;;;-145.45;100.00;57426.63;5074375;28;45556;-75
2022/04/20 01:13:55;;;;;;;;;38.75;35.50;;;;;-145.45;100.00;57426.63;5063488;28;45342;-74
2022/04/20 01:16:20;;;;;;;;;39.50;34.00;;;;;-145.45;100.00;57426.63;5065423;28;45348;-75
2022/04/20 01:18:48;;;;;;;;;40.50;33.00;;;;;-145.45;100.00;57426.63;5061614;28;45477;-75
2022/04/20 01:21:14;;;;;;;;;35.00;34.25;;;;;-145.45;100.00;57426.63;5069561;28;45445;-75
2022/04/20 01:23:39;;;;;;;;;33.75;28.50;;;;;-145.45;100.00;57426.63;5062132;28;45311;-75
2022/04/20 01:26:11;;;;;;;;;39.25;32.50;;;;;-145.45;100.00;57426.63;5070634;27;45358;-75
2022/04/20 01:28:38;;;;;;;;;43.00;34.00;;;;;-145.45;100.00;57426.63;5062089;28;45429;-74
2022/04/20 01:31:07;;;;;;;;;38.25;34.00;;;;;-145.45;100.00;57426.63;5072435;27;45897;-75
2022/04/20 01:33:33;;;;;;;;;40.75;35.50;;;;;-145.45;100.00;57426.63;5080004;28;45328;-76
2022/04/20 01:35:59;;;;;;;;;38.00;34.00;;;;;-145.45;100.00;57426.63;5080398;28;45213;-75
2022/04/20 01:38:24;;;;;;;;;43.25;33.50;;;;;-145.45;100.00;57426.63;5065079;28;45528;-75
2022/04/20 01:40:50;;;;;;;;;40.25;36.25;;;;;-145.45;100.00;57426.63;5073830;28;45477;-75
2022/04/20 01:43:16;;;;;;;;;42.50;37.00;;;;;-145.45;100.00;57426.63;5071378;27;45316;-75
2022/04/20 01:45:41;;;;;;;;;41.50;36.00;;;;;-145.45;100.00;57426.63;5071810;28;45526;-75
2022/04/20 01:48:07;;;;;;;;;40.50;35.25;;;;;-145.45;100.00;57426.63;5068935;27;46118;-75
2022/04/20 01:50:33;;;;;;;;;42.25;38.00;;;;;-145.45;100.00;57426.63;5064485;28;45495;-75
2022/04/20 01:52:58;;;;;;;;;38.00;34.75;;;;;-145.45;100.00;57426.63;5062957;28;45490;-76
2022/04/20 01:55:24;;;;;;;;;43.00;36.25;;;;;-145.45;100.00;57426.63;5066790;28;45452;-75
2022/04/20 01:57:49;;;;;;;;;42.50;36.50;;;;;-145.45;100.00;57426.63;5060487;28;46289;-75
2022/04/20 02:00:16;;;;;;;;;42.75;37.25;;;;;-145.45;100.00;57426.63;5064677;28;45381;-75
2022/04/20 02:02:42;;;;;;;;;51.25;36.50;;;;;-145.45;100.00;57426.63;5064779;28;45390;-75
2022/04/20 02:05:10;;;;;;;;;45.75;37.50;;;;;-145.45;100.00;57426.63;5062882;28;45371;-76
2022/04/20 02:07:36;;;;;;;;;47.25;36.75;;;;;-145.45;100.00;57426.63;5075450;28;47792;-75
2022/04/20 02:10:03;;;;;;;;;52.25;42.25;;;;;-145.45;100.00;57426.63;5069164;27;45518;-76
2022/04/20 02:12:29;;;;;;;;;55.25;42.50;;;;;-145.45;100.00;57426.63;5065899;28;45261;-75
2022/04/20 02:14:54;;;;;;;;;49.50;38.75;;;;;-145.45;100.00;57426.63;5062026;28;45334;-75
2022/04/20 02:17:20;;;;;;;;;45.00;37.25;;;;;-145.45;100.00;57426.63;5064266;28;46072;-75
2022/04/20 02:19:45;;;;;;;;;48.50;39.25;;;;;-145.45;100.00;57426.63;5065393;28;45393;-76
2022/04/20 02:22:11;;;;;;;;;53.25;43.00;;;;;-145.45;100.00;57426.63;5065264;27;45283;-75
2022/04/20 02:24:36;;;;;;;;;50.00;40.50;;;;;-145.45;100.00;57426.63;5064332;28;45383;-74
2022/04/20 02:27:02;;;;;;;;;45.75;36.50;;;;;-145.45;100.00;57426.63;5066462;27;45403;-75
2022/04/20 02:29:27;;;;;;;;;51.25;38.50;;;;;-145.45;100.00;57426.63;5062681;28;45657;-75
2022/04/20 02:31:52;;;;;;;;;57.00;44.00;;;;;-145.45;100.00;57426.63;5067546;27;45564;-75
2022/04/20 02:34:18;;;;;;;;;48.75;40.25;;;;;-145.45;100.00;57426.63;5065648;28;45449;-75
2022/04/20 02:36:43;;;;;;;;;54.25;44.25;;;;;-145.45;100.00;57426.63;5059840;27;46295;-75
2022/04/20 02:39:09;;;;;;;;;51.25;41.00;;;;;-145.45;100.00;57426.63;5063487;28;45619;-75
2022/04/20 02:41:36;;;;;;;;;49.75;41.00;;;;;-145.45;100.00;57426.63;5070952;27;45494;-75
2022/04/20 02:44:03;;;;;;;;;56.75;44.75;;;;;-145.45;100.00;57426.63;5063516;28;45521;-75
2022/04/20 02:46:28;;;;;;;;;53.00;40.50;;;;;-145.45;100.00;57426.63;5073302;27;46637;-75
2022/04/20 02:48:54;;;;;;;;;57.00;47.00;;;;;-145.45;100.00;57426.63;5066658;27;45394;-75
2022/04/20 02:51:19;;;;;;;;;54.00;45.25;;;;;-145.45;100.00;57426.63;5073053;27;45369;-75
2022/04/20 02:53:45;;;;;;;;;56.75;44.25;;;;;-145.45;100.00;57426.63;5078063;28;47023;-75
2022/04/20 02:56:10;;;;;;;;;54.00;42.50;;;;;-145.45;100.00;57426.63;5086765;27;47336;-75
2022/04/20 02:58:36;;;;;;;;;59.25;44.75;;;;;-145.45;100.00;57426.63;5062378;27;45233;-75
2022/04/20 03:01:01;;;;;;;;;53.75;43.25;;;;;-145.45;100.00;57426.63;5069269;27;45441;-75
2022/04/20 03:03:26;;;;;;;;;60.25;45.75;;;;;-145.45;100.00;57426.63;5061753;27;45495;-75
2022/04/20 03:05:53;;;;;;;;;57.50;44.00;;;;;-145.45;100.00;57426.63;5069150;28;46359;-75
2022/04/20 03:08:18;;;;;;;;;59.75;45.75;;;;;-145.45;100.00;57426.63;5061249;27;45178;-76
2022/04/20 03:10:44;;;;;;;;;52.75;43.25;;;;;-145.45;100.00;57426.63;5065238;27;45268;-75
2022/04/20 03:13:09;;;;;;;;;59.75;45.75;;;;;-145.45;100.00;57426.63;5077619;27;46014;-75
2022/04/20 03:15:35;;;;;;;;;61.00;48.25;;;;;-145.45;100.00;57426.63;5061150;28;46953;-75
2022/04/20 03:18:01;;;;;;;;;62.50;46.75;;;;;-145.45;100.00;57426.63;5063932;28;45293;-76
2022/04/20 03:20:26;;;;;;;;;61.25;47.75;;;;;-145.45;100.00;57426.63;5072541;27;45410;-75
2022/04/20 03:22:51;;;;;;;;;56.75;46.00;;;;;-145.45;100.00;57426.63;5058888;28;45268;-75
2022/04/20 03:25:17;;;;;;;;;56.75;47.00;;;;;-145.45;100.00;57426.63;5068648;28;46177;-75
2022/04/20 03:27:42;;;;;;;;;58.25;47.25;;;;;-145.45;100.00;57426.63;5061378;28;45293;-75
2022/04/20 03:30:08;;;;;;;;;55.75;45.50;;;;;-145.45;100.00;57426.63;5072622;27;45354;-76
2022/04/20 03:32:35;;;;;;;;;62.75;47.50;;;;;-145.45;100.00;57426.63;5060758;28;45496;-75
2022/04/20 03:35:01;;;;;;;;;62.50;49.00;;;;;-145.45;100.00;57426.63;5066436;28;46298;-75
2022/04/20 03:37:26;;;;;;;;;64.25;49.00;;;;;-145.45;100.00;57426.63;5062203;27;45717;-75
2022/04/20 03:39:52;;;;;;;;;56.00;45.25;;;;;-145.45;100.00;57426.63;5064829;28;45394;-75
2022/04/20 03:42:18;;;;;;;;;67.25;49.00;;;;;-145.45;100.00;57426.63;5072580;28;45232;-74
2022/04/20 03:44:43;;;;;;;;;66.00;50.75;;;;;-145.45;100.00;57426.63;5066935;28;47976;-75
2022/04/20 03:47:09;;;;;;;;;67.25;50.50;;;;;-145.45;100.00;57426.63;5073743;28;45243;-74
2022/04/20 03:49:34;;;;;;;;;58.50;47.25;;;;;-145.45;100.00;57426.63;5065417;28;45529;-74
2022/04/20 03:52:01;;;;;;;;;64.50;50.50;;;;;-145.45;100.00;57426.63;5075202;28;45249;-73
2022/04/20 03:54:27;;;;;;;;;70.50;51.50;;;;;-145.45;100.00;57426.63;5063940;28;47961;-75
2022/04/20 03:57:04;;;;;;;;;68.00;51.75;;;;;-145.45;100.00;57426.63;5074724;28;45480;-75
2022/04/20 03:59:35;;;;;;;;;63.00;50.50;;;;;-145.45;100.00;57426.63;5064810;28;45527;-74
2022/04/20 04:02:00;;;;;;;;;59.50;44.25;;;;;-145.45;100.00;57426.63;5069543;28;45398;-76
2022/04/20 04:04:26;;;;;;;;;59.00;47.50;;;;;-145.45;100.00;57426.63;5065266;28;46186;-76
2022/04/20 04:06:52;;;;;;;;;60.25;48.75;;;;;-145.45;100.00;57426.63;5071625;27;45272;-76
2022/04/20 04:09:17;;;;;;;;;60.75;48.75;;;;;-145.45;100.00;57426.63;5075596;28;45579;-76
2022/04/20 04:11:43;;;;;;;;;65.50;51.00;;;;;-145.45;100.00;57426.63;5076692;28;46037;-76
2022/04/20 04:14:08;;;;;;;;;61.00;49.00;;;;;-145.45;100.00;57426.63;5064088;28;45253;-73
2022/04/20 04:16:36;;;;;;;;;66.75;51.75;;;;;-145.45;100.00;57426.63;5070362;28;45335;-75
2022/04/20 04:19:06;;;;;;;;;59.75;49.50;;;;;-145.45;100.00;57426.63;5064247;28;45265;-75
2022/04/20 04:21:33;;;;;;;;;65.75;51.00;;;;;-145.45;100.00;57426.63;5070422;28;45497;-75
2022/04/20 04:23:59;;;;;;;;;63.00;48.00;;;;;-145.45;100.00;57426.63;5069947;28;46143;-79
2022/04/20 04:26:25;;;;;;;;;64.25;52.50;;;;;-145.45;100.00;57426.63;5070553;28;45362;-81
2022/04/20 04:28:51;;;;;;;;;68.00;54.25;;;;;-145.45;100.00;57426.63;5064260;28;45316;-81
2022/04/20 04:31:16;;;;;;;;;67.25;51.00;;;;;-145.45;100.00;57426.63;5070709;28;45590;-85
2022/04/20 04:33:41;;;;;;;;;72.25;53.25;;;;;-145.45;100.00;57426.63;5062439;28;45228;-83
2022/04/20 04:36:07;;;;;;;;;63.75;51.00;;;;;-145.45;100.00;57426.63;5071654;28;45292;-83
2022/04/20 04:38:33;;;;;;;;;64.50;48.50;;;;;-145.45;100.00;57426.63;5069519;27;45272;-85
2022/04/20 04:40:59;;;;;;;;;69.50;52.75;;;;;-145.45;100.00;57426.63;5072376;28;45174;-82
2022/04/20 04:43:24;;;;;;;;;65.50;51.00;;;;;-145.45;100.00;57426.63;5068885;27;46266;-82
2022/04/20 04:48:36;;;;;;;;;65.50;51.00;;;;;-145.45;100.00;57426.63;5066677;28;45422;-85
2022/04/20 04:51:03;;;;;;;;;63.75;51.25;;;;;-145.45;100.00;57426.63;5065727;28;46223;-79
2022/04/20 04:53:28;;;;;;;;;71.25;54.25;;;;;-145.45;100.00;57426.63;5063185;28;45647;-81
2022/04/20 04:55:54;;;;;;;;;70.50;55.25;;;;;-145.45;100.00;57426.63;5070887;27;45386;-78
2022/04/20 04:58:19;;;;;;;;;68.00;53.50;;;;;-145.45;100.00;57426.63;5080098;27;45359;-79
2022/04/20 05:00:44;;;;;;;;;67.25;51.25;;;;;-145.45;100.00;57426.63;5075001;27;45356;-77
2022/04/20 05:03:10;;;;;;;;;67.50;53.25;;;;;-145.45;100.00;57426.63;5065969;27;45462;-78
2022/04/20 05:05:35;;;;;;;;;70.50;55.50;;;;;-145.45;100.00;57426.63;5065319;28;45424;-79
2022/04/20 05:08:01;;;;;;;;;72.25;54.25;;;;;-145.45;100.00;57426.63;5079852;28;45354;-78
2022/04/20 05:10:26;;;;;;;;;72.50;55.75;;;;;-145.45;100.00;57426.63;5068940;27;45369;-78
2022/04/20 05:12:52;;;;;;;;;68.00;54.00;;;;;-145.45;100.00;57426.63;5068532;28;45024;-78
2022/04/20 05:15:18;;;;;;;;;64.50;51.50;;;;;-145.45;100.00;57426.63;5074300;28;45436;-78
2022/04/20 05:17:43;;;;;;;;;71.00;56.00;;;;;-145.45;100.00;57426.63;5065402;27;45286;-77
2022/04/20 05:20:09;;;;;;;;;67.75;54.25;;;;;-145.45;100.00;57426.63;5073014;28;45312;-78
2022/04/20 05:22:37;;;;;;;;;61.50;52.00;;;;;-145.45;100.00;57426.63;5064066;27;45338;-78
2022/04/20 05:25:02;;;;;;;;;73.50;56.25;;;;;-145.45;100.00;57426.63;5068732;28;45690;-78
2022/04/20 05:27:27;;;;;;;;;72.25;55.00;;;;;-145.45;100.00;57426.63;5063933;28;45316;-78
2022/04/20 05:29:53;;;;;;;;;71.25;55.75;;;;;-145.45;100.00;57426.63;5076853;28;47138;-77
2022/04/20 05:32:18;;;;;;;;;69.25;54.25;;;;;-145.45;100.00;57426.63;5064981;28;47261;-78
2022/04/20 05:34:44;;;;;;;;;66.50;51.25;;;;;-145.45;100.00;57426.63;5076298;28;45456;-78
2022/04/20 05:42:37;;;;;;;;;73.75;54.50;;;;;-145.45;100.00;57426.63;5075085;28;45458;-80
2022/04/20 05:45:03;;;;;;;;;71.00;54.25;;;;;-145.45;100.00;57426.63;5069605;28;45329;-82
2022/04/20 05:47:29;;;;;;;;;70.75;55.00;;;;;-145.45;100.00;57426.63;5070978;28;45448;-82
2022/04/20 05:49:54;;;;;;;;;75.75;57.50;;;;;-145.45;100.00;57426.63;5066114;28;45525;-81
2022/04/20 05:52:19;;;;;;;;;64.50;48.50;;;;;-145.45;100.00;57426.63;5069920;28;45239;-80
2022/04/20 05:54:45;;;;;;;;;69.75;55.25;;;;;-145.45;100.00;57426.63;5067230;28;45719;-81
2022/04/20 05:57:10;;;;;;;;;69.00;55.00;;;;;-145.45;100.00;57426.63;5069676;28;45344;-82
2022/04/20 05:59:35;;;;;;;;;69.25;55.00;;;;;-145.45;100.00;57426.63;5064295;28;45863;-78
2022/04/20 06:02:01;;;;;;;;;66.25;53.50;;;;;-145.45;100.00;57426.63;5068282;27;45292;-80
2022/04/20 06:04:28;;;;;;;;;69.75;52.00;;;;;-145.45;100.00;57426.63;5062279;28;45298;-77
2022/04/20 06:10:15;;;;;;;;;72.00;54.50;;;;;-145.45;100.00;57426.63;5062709;28;45341;-78
2022/04/20 06:12:41;;;;;;;;;75.00;55.75;;;;;-145.45;100.00;57426.63;5064704;28;46025;-77
2022/04/20 06:15:08;;;;;;;;;75.25;58.00;;;;;-145.45;100.00;57426.63;5067800;28;45301;-76
2022/04/20 06:17:33;;;;;;;;;70.75;54.75;;;;;-145.45;100.00;57426.63;5062300;27;45468;-77
2022/04/20 06:19:58;;;;;;;;;69.50;54.00;;;;;-145.45;100.00;57426.63;5071383;28;45417;-77
2022/04/20 06:22:24;;;;;;;;;71.50;54.00;;;;;-145.45;100.00;57426.63;5066422;27;45280;-78
2022/04/20 06:24:49;;;;;;;;;66.75;53.25;;;;;-145.45;100.00;57426.63;5071076;28;45222;-77
2022/04/20 06:27:15;;;;;;;;;70.25;55.25;;;;;-145.45;100.00;57426.63;5069204;27;45327;-80
2022/04/20 06:29:41;;;;;;;;;70.50;54.75;;;;;-145.45;100.00;57426.63;5079394;28;46224;-77
2022/04/20 06:32:07;;;;;;;;;66.00;52.25;;;;;-145.45;100.00;57426.63;5068382;28;47129;-77
2022/04/20 06:34:32;;;;;;;;;74.25;54.50;;;;;-145.45;100.00;57426.63;5075257;28;45916;-77
2022/04/20 06:36:58;;;;;;;;;70.00;54.25;;;;;-145.45;100.00;57426.63;5072252;28;45361;-78
2022/04/20 06:39:23;;;;;;;;;74.25;57.50;;;;;-145.45;100.00;57426.63;5067183;27;45642;-80
2022/04/20 06:41:51;;;;;;;;;69.50;53.25;;;;;-145.45;100.00;57426.63;5070805;27;45370;-80
2022/04/20 06:44:16;;;;;;;;;65.50;53.75;;;;;-145.45;100.00;57426.63;5062147;28;47091;-81
2022/04/20 06:46:42;;;;;;;;;72.75;53.75;;;;;-145.45;100.00;57426.63;5072376;28;45282;-78
2022/04/20 06:49:07;;;;;;;;;67.25;51.75;;;;;-145.45;100.00;57426.63;5072568;28;45322;-82
2022/04/20 06:58:31;;;;;;;;;70.50;54.25;;;;;-145.45;100.00;57426.63;5072082;28;46171;-84
2022/04/20 06:59:46;;;;;;;;;70.00;53.25;;;;;-145.45;100.00;57426.63;5065121;28;45323;-83
2022/04/20 07:02:12;;;;;;;;;74.00;54.50;;;;;-145.45;100.00;57426.63;5066193;28;45929;-81
2022/04/20 07:04:37;;;;;;;;;71.50;54.75;;;;;-145.45;100.00;57426.63;5068030;28;45413;-81
2022/04/20 07:07:03;;;;;;;;;69.25;52.25;;;;;-145.45;100.00;57426.63;5065013;28;45281;-82
2022/04/20 07:09:28;;;;;;;;;65.75;49.00;;;;;-145.45;100.00;57426.63;5061967;28;45530;-82
2022/04/20 07:11:53;;;;;;;;;59.00;46.50;;;;;-145.45;100.00;57426.63;5064033;28;46115;-80
2022/04/20 07:14:19;;;;;;;;;61.00;47.75;;;;;-145.45;100.00;57426.63;5062904;28;45003;-80
2022/04/20 07:16:44;;;;;;;;;63.50;49.50;;;;;-145.45;100.00;57426.63;5066754;28;45594;-81
2022/04/20 07:19:09;;;;;;;;;53.25;42.00;;;;;-145.45;100.00;57426.63;5061103;28;45454;-79
2022/04/20 07:21:35;;;;;;;;;57.00;46.00;;;;;-145.45;100.00;57426.63;5071994;28;45410;-82
2022/04/20 07:24:00;;;;;;;;;57.50;46.50;;;;;-145.45;100.00;57426.63;5071654;27;45331;-83
2022/04/20 07:26:26;;;;;;;;;62.75;47.75;;;;;-145.45;100.00;57426.63;5067257;27;44781;-83
2022/04/20 07:28:52;;;;;;;;;62.50;47.00;;;;;-145.45;100.00;57426.63;5091944;27;46282;-84
2022/04/20 07:31:17;;;;;;;;;54.25;44.00;;;;;-145.45;100.00;57426.63;5063261;28;46595;-83
2022/04/20 07:33:42;;;;;;;;;53.50;43.25;;;;;-145.45;100.00;57426.63;5068346;28;45355;-80
2022/04/20 07:36:08;;;;;;;;;50.75;42.00;;;;;-145.45;100.00;57426.63;5078242;28;45529;-81
2022/04/20 07:38:33;;;;;;;;;50.25;39.25;;;;;-145.45;100.00;57426.63;5072730;28;45476;-83
2022/04/20 07:40:58;;;;;;;;;48.75;35.50;;;;;-145.45;100.00;57426.63;5070577;28;45590;-80
2022/04/20 07:43:24;;;;;;;;;51.25;39.75;;;;;-145.45;100.00;57426.63;5063757;28;45288;-80
2022/04/20 07:45:49;;;;;;;;;45.50;37.50;;;;;-145.45;100.00;57426.63;5071152;28;45286;-81
2022/04/20 07:48:14;;;;;;;;;52.25;40.25;;;;;-145.45;100.00;57426.63;5066961;27;45285;-84
2022/04/20 07:50:40;;;;;;;;;52.25;41.00;;;;;-145.45;100.00;57426.63;5067675;28;46951;-82
2022/04/20 07:53:07;;;;;;;;;52.00;39.25;;;;;-145.45;100.00;57426.63;5066773;27;45264;-82
2022/04/20 07:55:34;;;;;;;;;45.00;36.50;;;;;-145.45;100.00;57426.63;5066713;28;45217;-82
2022/04/20 07:58:01;;;;;;;;;50.75;38.50;;;;;-145.45;100.00;57426.63;5075833;27;45470;-82
2022/04/20 08:00:27;;;;;;;;;45.75;38.25;;;;;-145.45;100.00;57426.63;5069549;27;45437;-85
2022/04/20 08:03:12;;;;;;;;;49.75;40.00;;;;;-145.45;100.00;57426.63;5068340;28;45366;-81
2022/04/20 08:05:38;;;;;;;;;49.00;38.75;;;;;-145.45;100.00;57426.63;5062077;27;48227;-80
2022/04/20 08:08:06;;;;;;;;;48.25;39.75;;;;;-145.45;100.00;57426.63;5062184;28;45469;-75
2022/04/20 08:10:31;;;;;;;;;46.25;38.25;;;;;-145.45;100.00;57426.63;5070631;28;46212;-73
2022/04/20 08:12:56;;;;;;;;;50.25;39.50;;;;;-145.45;100.00;57426.63;5058413;27;45251;-75
2022/04/20 08:15:22;;;;;;;;;47.75;38.50;;;;;-145.45;100.00;57426.63;5073061;28;45605;-78
2022/04/20 08:17:47;;;;;;;;;50.00;40.75;;;;;-145.45;100.00;57426.63;5063175;27;45558;-73
2022/04/20 08:20:12;;;;;;;;;49.50;38.00;;;;;-145.45;100.00;57426.63;5066798;28;45549;-73
2022/04/20 08:22:43;;;;;;;;;46.75;39.50;;;;;-145.45;100.00;57426.63;5060560;27;45625;-73
2022/04/20 08:25:10;;;;;;;;;37.25;31.50;;;;;-145.45;100.00;57426.63;5067652;28;45369;-72
2022/04/20 08:27:36;;;;;;;;;38.00;32.50;;;;;-145.45;100.00;57426.63;5076023;27;46399;-71
2022/04/20 08:30:03;;;;;;;;;45.75;34.50;;;;;-145.45;100.00;57426.63;5068169;28;45276;-72
2022/04/20 08:32:29;;;;;;;;;45.25;36.00;;;;;-145.45;100.00;57426.63;5065584;27;45277;-71
2022/04/20 08:34:55;;;;;;;;;33.25;31.00;;;;;-145.45;100.00;57426.63;5074063;28;45386;-72
2022/04/20 08:37:20;;;;;;;;;30.25;27.25;;;;;-145.45;100.00;57426.63;5073934;28;45498;-72
2022/04/20 08:39:46;;;;;;;;;32.75;30.50;;;;;-145.45;100.00;57426.63;5066012;28;45367;-71
2022/04/20 08:42:12;;;;;;;;;31.00;28.00;;;;;-145.45;100.00;57426.63;5073100;28;45373;-70
2022/04/20 08:44:43;;;;;;;;;34.33;29.67;;;;;-145.45;100.00;57426.63;5064951;28;45387;-70
2022/04/20 08:47:13;;;;;;;;;29.00;26.33;;;;;-145.45;100.00;57426.63;5075278;28;45454;-70
2022/04/20 08:49:44;;;;;;;;;36.33;29.67;;;;;-145.45;100.00;57426.63;5064909;28;45359;-70
2022/04/20 08:54:57;;;;;;;;;39.67;32.67;;;;;-145.45;100.00;57426.63;5066870;28;45370;-70
2022/04/20 08:57:26;;;;;;;;;29.33;26.67;;;;;-145.45;100.00;57426.63;5065739;28;45351;-71
2022/04/20 08:59:52;;;;;;;;;29.33;25.67;;;;;-145.45;100.00;57426.63;5069619;28;47113;-71
2022/04/20 09:02:24;;;;;;;;;39.33;32.33;;;;;-145.45;100.00;57426.63;5072976;27;45319;-72
2022/04/20 09:04:50;;;;;;;;;28.33;27.00;;;;;-145.45;100.00;57426.63;5064601;28;45386;-71
2022/04/20 09:07:15;;;;;;;;;31.00;28.00;;;;;-145.45;100.00;57426.63;5077051;28;46421;-71
2022/04/20 09:09:41;;;;;;;;;28.67;25.67;;;;;-145.45;100.00;57426.63;5065075;28;45394;-72
2022/04/20 09:12:15;;;;;;;;;41.00;34.67;;;;;-145.45;100.00;57426.63;5066194;27;45546;-71
2022/04/20 09:14:43;;;;;;;;;28.00;24.67;;;;;-145.45;100.00;57426.63;5072905;28;46102;-71
2022/04/20 09:17:13;;;;;;;;;31.00;26.00;;;;;-145.45;100.00;57426.63;5068504;28;45272;-71
2022/04/20 09:19:39;;;;;;;;;28.33;24.33;;;;;-145.45;100.00;57426.63;5071584;28;48366;-71
2022/04/20 09:22:18;;;;;;;;;33.33;27.33;;;;;-145.45;100.00;57426.63;5076654;27;45413;-71
2022/04/20 09:24:58;;;;;;;;;22.67;20.00;;;;;-145.45;100.00;57426.63;5063584;27;45538;-71
2022/04/20 09:27:26;;;;;;;;;25.33;24.00;;;;;-145.45;100.00;57426.63;5062280;28;45355;-71
2022/04/20 09:29:54;;;;;;;;;24.67;23.33;;;;;-145.45;100.00;57426.63;5073074;28;48170;-72
2022/04/20 09:32:46;;;;;;;;;26.67;26.67;;;;;-145.45;100.00;57426.63;5062077;28;45381;-70
2022/04/20 09:35:18;;;;;;;;;18.33;16.67;;;;;-145.45;100.00;57426.63;5076165;28;45314;-71
2022/04/20 09:37:44;;;;;;;;;20.67;17.33;;;;;-145.45;100.00;57426.63;5062961;27;45328;-71
2022/04/20 09:40:13;;;;;;;;;20.00;19.67;;;;;-145.45;100.00;57426.63;5068911;28;47544;-72
2022/04/20 09:42:58;;;;;;;;;26.33;24.00;;;;;-145.45;100.00;57426.63;5062800;27;45454;-71
2022/04/20 09:45:24;;;;;;;;;23.33;22.00;;;;;-145.45;100.00;57426.63;5061601;28;45467;-70
2022/04/20 09:50:34;;;;;;;;;23.00;19.67;;;;;-145.45;100.00;57426.63;5062668;28;45840;-72
2022/04/20 09:53:06;;;;;;;;;20.33;20.00;;;;;-145.45;100.00;57426.63;5063334;28;45426;-72
2022/04/20 09:55:36;;;;;;;;;21.67;18.00;;;;;-145.45;100.00;57426.63;5066618;28;45278;-71
2022/04/20 09:58:21;;;;;;;;;21.67;20.33;;;;;-145.45;100.00;57426.63;5072279;28;46467;-71
2022/04/20 10:00:53;;;;;;;;;14.00;12.67;;;;;-145.45;100.00;57426.63;5063928;28;45378;-72
2022/04/20 10:03:27;;;;;;;;;21.00;20.00;;;;;-145.45;100.00;57426.63;5061027;27;45454;-72
2022/04/20 10:05:54;;;;;;;;;20.00;19.33;;;;;-145.45;100.00;57426.63;5066767;28;45370;-71
2022/04/20 10:08:21;;;;;;;;;20.67;19.33;;;;;-145.45;100.00;57426.63;5058790;28;45296;-71
2022/04/20 10:10:48;;;;;;;;;26.00;22.00;;;;;-145.45;100.00;57426.63;5061124;28;46660;-71
2022/04/20 10:13:15;;;;;;;;;19.33;17.67;;;;;-145.45;100.00;57426.63;5058951;28;45308;-71
2022/04/20 10:18:28;;;;;;;;;15.67;14.33;;;;;-145.45;100.00;57426.63;5075520;28;45365;-70
2022/04/20 10:20:57;;;;;;;;;15.67;13.00;;;;;-145.45;100.00;57426.63;5063835;28;46369;-70
2022/04/20 10:23:23;;;;;;;;;16.33;15.67;;;;;-145.45;100.00;57426.63;5058896;28;45375;-71
2022/04/20 10:25:50;;;;;;;;;13.33;13.33;;;;;-145.45;100.00;57426.63;5063418;28;45530;-71
2022/04/20 10:28:23;;;;;;;;;13.67;12.00;;;;;-145.45;100.00;57426.63;5075365;28;45589;-71
2022/04/20 10:31:13;;;;;;;;;14.67;12.00;;;;;-145.45;100.00;57426.63;5062712;27;45335;-72
2022/04/20 10:33:41;;;;;;;;;8.00;8.00;;;;;-145.45;100.00;57426.63;5058995;28;45257;-71
2022/04/20 10:36:11;;;;;;;;;5.67;5.67;;;;;-145.45;100.00;57426.63;5064187;28;45541;-71
2022/04/20 10:38:38;;;;;;;;;13.00;9.33;;;;;-145.45;100.00;57426.63;5060993;28;45450;-72
2022/04/20 10:41:11;;;;;;;;;11.33;10.33;;;;;-145.45;100.00;57426.63;5068079;28;45291;-72
2022/04/20 10:43:44;;;;;;;;;10.33;8.33;;;;;-145.45;100.00;57426.63;5065373;27;45257;-72
2022/04/20 10:46:15;;;;;;;;;15.33;11.00;;;;;-145.45;100.00;57426.63;5067243;28;45417;-72
2022/04/20 10:48:52;;;;;;;;;10.50;9.50;;;;;-145.45;100.00;57426.63;5061997;28;47220;-73
2022/04/20 10:51:19;;;;;;;;;9.00;8.00;;;;;-145.45;100.00;57426.63;5069609;28;45303;-72
2022/04/20 10:53:48;;;;;;;;;11.00;10.33;;;;;-145.45;100.00;57426.63;5060096;28;45472;-72
2022/04/20 10:56:14;;;;;;;;;11.67;10.67;;;;;-145.45;100.00;57426.63;5070303;27;45386;-72
2022/04/20 10:59:04;;;;;;;;;9.00;8.50;;;;;-145.45;100.00;57426.63;5061980;27;45309;-73
2022/04/20 11:01:30;;;;;;;;;7.25;7.25;;;;;-145.45;100.00;57426.63;5069194;28;45453;-73
2022/04/20 11:04:07;;;;;;;;;6.25;5.75;;;;;-145.45;100.00;57426.63;5075458;28;45550;-73
2022/04/20 11:07:01;;;;;;;;;7.33;6.67;;;;;-145.45;100.00;57426.63;5070208;28;46478;-73
2022/04/20 11:09:45;;;;;;;;;7.50;7.50;;;;;-145.45;100.00;57426.63;5070698;28;45565;-72
2022/04/20 11:21:13;;;;;;;;;7.00;6.00;;;;;-145.45;100.00;57426.63;5071309;28;45404;-73
2022/04/20 11:24:06;;;;;;;;;7.75;7.00;;;;;-145.45;100.00;57426.63;5058650;27;45418;-71
2022/04/20 11:26:49;;;;;;;;;5.50;5.00;;;;;-145.45;100.00;57426.63;5067438;28;45399;-72
2022/04/20 11:29:17;;;;;;;;;5.75;5.00;;;;;-145.45;100.00;57426.63;5061055;28;45369;-73